Kirkburton, United Kingdom
Current Conditions -  °F | °C
As of 12:50 AM on Sunday 23 Nov 2014 (Local Time) from EGNM Reporting Station
Clear Clear  
Wind Chill: 42°   Ceiling: Unl
Heat Index: 46°   Visibility: 6mi
Dew Point: 46°   Wind: 9mph
Humidity: 100%   Direction: 270°W
Pressure: 29.97"   Gusts: NA
Location:  53.61°N, 1.7°W
Report Text: EGNM 230050Z 27008KT CAVOK 08/08 Q1015
Loading
Personal Weather Stations






























Interactive Weather Map New forecast layout! Learn more

10-Day Weather Forecast

Advertisements
Track Severe Weather on mobile